Time;durP1;ratioP1;P1;durP2;ratioP2;P2;SDS_P1;SDS_P2;PMS_P1;PMS_P2;Temp;Humidity;BMP_temperature;BMP_pressure;BME280_temperature;BME280_humidity;BME280_pressure;Samples;Min_cycle;Max_cycle;Signal;HPM_P1;HPM_P2
2022/01/18 00:00:50;;;;;;;;;;;;;;;;;;5023994;28;19961;-81
2022/01/18 00:03:16;;;;;;;;;;;;;;;;;;5024455;28;19965;-82
2022/01/18 00:05:44;;;;;;;;;;;;;;;;;;5026780;28;19965;-83
2022/01/18 00:08:11;;;;;;;;;;;;;;;;;;5025300;28;19965;-82
2022/01/18 00:10:37;;;;;;;;;;;;;;;;;;5026259;28;19968;-81
2022/01/18 00:15:42;;;;;;;;;;;;;;;;;;5027463;28;19975;-80
2022/01/18 00:18:11;;;;;;;;;;;;;;;;;;5005390;28;20401;-86
2022/01/18 00:21:00;;;;;;;;;;;;;;;;;;5008646;28;19965;-82
2022/01/18 00:23:26;;;;;;;;;;;;;;;;;;5003711;28;19952;-81
2022/01/18 00:25:55;;;;;;;;;;;;;;;;;;5008830;28;20038;-80
2022/01/18 00:28:21;;;;;;;;;;;;;;;;;;5008095;28;19921;-82
2022/01/18 00:33:23;;;;;;;;;;;;;;;;;;5003527;28;20892;-80
2022/01/18 00:35:58;;;;;;;;;;;;;;;;;;5005238;28;20015;-80
2022/01/18 00:38:45;;;;;;;;;;;;;;;;;;5040730;28;19957;-79
2022/01/18 00:41:11;;;;;;;;;;;;;;;;;;5000100;28;19961;-81
2022/01/18 00:43:37;;;;;;;;;;;;;;;;;;5003377;28;20373;-81
2022/01/18 00:46:04;;;;;;;;;;;;;;;;;;5003848;28;19964;-82
2022/01/18 00:48:33;;;;;;;;;;;;;;;;;;5004457;28;19976;-81
2022/01/18 00:50:59;;;;;;;;;;;;;;;;;;5024120;28;19960;-81
2022/01/18 00:53:26;;;;;;;;;;;;;;;;;;5024446;28;19957;-82
2022/01/18 00:58:39;;;;;;;;;;;;;;;;;;5014129;28;20267;-82
2022/01/18 01:01:05;;;;;;;;;;;;;;;;;;5032180;28;20482;-83
2022/01/18 01:03:31;;;;;;;;;;;;;;;;;;5022582;28;19945;-82
2022/01/18 01:05:57;;;;;;;;;;;;;;;;;;5026225;28;19971;-83
2022/01/18 01:08:24;;;;;;;;;;;;;;;;;;5020058;28;19962;-82
2022/01/18 01:10:50;;;;;;;;;;;;;;;;;;5030223;28;19952;-83
2022/01/18 01:13:16;;;;;;;;;;;;;;;;;;5026470;28;19921;-85
2022/01/18 01:32:39;;;;;;;;;;;;;;;;;;5003030;28;19917;-82
2022/01/18 01:45:27;;;;;;;;;;;;;;;;;;5005388;28;19960;-82
2022/01/18 01:47:53;;;;;;;;;;;;;;;;;;5010871;28;19949;-88
2022/01/18 01:50:21;;;;;;;;;;;;;;;;;;5058375;28;19921;-84
2022/01/18 01:52:47;;;;;;;;;;;;;;;;;;5035026;28;19925;-86
2022/01/18 01:55:13;;;;;;;;;;;;;;;;;;5033772;28;20426;-81
2022/01/18 01:57:40;;;;;;;;;;;;;;;;;;5027001;28;19952;-81
2022/01/18 02:00:06;;;;;;;;;;;;;;;;;;5026098;28;20419;-81
2022/01/18 02:02:32;;;;;;;;;;;;;;;;;;5024583;28;19922;-82
2022/01/18 02:04:58;;;;;;;;;;;;;;;;;;5031803;28;19952;-81
2022/01/18 02:07:24;;;;;;;;;;;;;;;;;;5023851;28;19949;-81
2022/01/18 02:09:50;;;;;;;;;;;;;;;;;;5033027;28;19918;-81
2022/01/18 02:12:17;;;;;;;;;;;;;;;;;;5038999;28;19921;-82
2022/01/18 02:14:47;;;;;;;;;;;;;;;;;;5035245;28;20333;-82
2022/01/18 02:22:43;;;;;;;;;;;;;;;;;;5023090;28;20522;-82
2022/01/18 02:25:09;;;;;;;;;;;;;;;;;;5021663;28;20460;-81
2022/01/18 02:27:35;;;;;;;;;;;;;;;;;;5028007;28;19921;-81
2022/01/18 02:30:01;;;;;;;;;;;;;;;;;;5025341;28;19971;-80
2022/01/18 02:32:28;;;;;;;;;;;;;;;;;;5011887;28;20164;-81
2022/01/18 02:34:54;;;;;;;;;;;;;;;;;;5003459;28;19949;-81
2022/01/18 02:37:20;;;;;;;;;;;;;;;;;;4999410;28;19961;-81
2022/01/18 02:39:46;;;;;;;;;;;;;;;;;;5004073;28;20464;-82
2022/01/18 02:42:15;;;;;;;;;;;;;;;;;;4995339;28;20147;-81
2022/01/18 02:44:42;;;;;;;;;;;;;;;;;;5002425;28;20421;-81
2022/01/18 02:47:09;;;;;;;;;;;;;;;;;;5002998;28;19965;-80
2022/01/18 02:49:35;;;;;;;;;;;;;;;;;;5017695;28;19940;-81
2022/01/18 02:52:01;;;;;;;;;;;;;;;;;;5025736;28;20061;-82
2022/01/18 02:54:27;;;;;;;;;;;;;;;;;;5022920;28;19921;-81
2022/01/18 02:56:57;;;;;;;;;;;;;;;;;;5032782;28;19962;-81
2022/01/18 02:59:30;;;;;;;;;;;;;;;;;;5026202;28;20445;-80
2022/01/18 03:04:41;;;;;;;;;;;;;;;;;;5028676;28;19956;-79
2022/01/18 03:07:07;;;;;;;;;;;;;;;;;;5025577;28;19948;-79
2022/01/18 03:09:33;;;;;;;;;;;;;;;;;;5030595;28;19984;-80
2022/01/18 03:11:59;;;;;;;;;;;;;;;;;;5018917;28;19999;-80
2022/01/18 03:14:25;;;;;;;;;;;;;;;;;;5019566;28;20015;-80
2022/01/18 03:16:51;;;;;;;;;;;;;;;;;;5017632;28;19964;-80
2022/01/18 03:19:18;;;;;;;;;;;;;;;;;;5019718;28;19945;-80
2022/01/18 03:21:44;;;;;;;;;;;;;;;;;;5024405;28;19952;-80
2022/01/18 03:24:44;;;;;;;;;;;;;;;;;;5019185;28;19968;-80
2022/01/18 03:29:42;;;;;;;;;;;;;;;;;;5014213;28;19925;-80
2022/01/18 03:32:08;;;;;;;;;;;;;;;;;;5007096;28;19975;-80
2022/01/18 03:34:34;;;;;;;;;;;;;;;;;;5006624;28;19952;-80
2022/01/18 03:37:00;;;;;;;;;;;;;;;;;;5014706;28;19921;-80
2022/01/18 03:39:26;;;;;;;;;;;;;;;;;;5020253;28;19975;-81
2022/01/18 03:42:10;;;;;;;;;;;;;;;;;;5019255;28;19995;-84
2022/01/18 03:44:36;;;;;;;;;;;;;;;;;;5025731;28;20400;-81
2022/01/18 03:47:03;;;;;;;;;;;;;;;;;;5025868;28;19946;-83
2022/01/18 03:49:30;;;;;;;;;;;;;;;;;;5018495;28;20395;-82
2022/01/18 03:51:56;;;;;;;;;;;;;;;;;;5026184;28;19948;-82
2022/01/18 03:54:24;;;;;;;;;;;;;;;;;;5025186;28;19917;-82
2022/01/18 03:56:50;;;;;;;;;;;;;;;;;;5030473;28;19953;-84
2022/01/18 03:59:16;;;;;;;;;;;;;;;;;;5028925;28;19948;-81
2022/01/18 04:01:42;;;;;;;;;;;;;;;;;;5026296;28;19956;-82
2022/01/18 04:04:08;;;;;;;;;;;;;;;;;;5033364;28;19956;-82
2022/01/18 04:06:34;;;;;;;;;;;;;;;;;;5025719;28;20412;-81
2022/01/18 04:09:01;;;;;;;;;;;;;;;;;;5030007;28;19917;-80
2022/01/18 04:11:27;;;;;;;;;;;;;;;;;;5025605;28;20350;-80
2022/01/18 04:13:53;;;;;;;;;;;;;;;;;;5025485;28;20333;-77
2022/01/18 04:16:19;;;;;;;;;;;;;;;;;;5025450;28;19957;-80
2022/01/18 04:29:11;;;;;;;;;;;;;;;;;;5025459;28;20338;-81
2022/01/18 04:31:37;;;;;;;;;;;;;;;;;;5020411;28;20010;-82
2022/01/18 04:34:03;;;;;;;;;;;;;;;;;;5026592;28;19952;-78
2022/01/18 04:36:29;;;;;;;;;;;;;;;;;;5023508;28;19957;-83
2022/01/18 04:38:55;;;;;;;;;;;;;;;;;;5020849;28;19948;-84
2022/01/18 04:41:27;;;;;;;;;;;;;;;;;;5018873;28;20348;-83
2022/01/18 04:49:16;;;;;;;;;;;;;;;;;;5015522;28;19929;-83
2022/01/18 04:51:44;;;;;;;;;;;;;;;;;;5018532;28;19953;-82
2022/01/18 04:54:11;;;;;;;;;;;;;;;;;;5022108;28;20478;-82
2022/01/18 04:59:06;;;;;;;;;;;;;;;;;;5014879;28;20038;-80
2022/01/18 05:01:33;;;;;;;;;;;;;;;;;;5024476;28;19921;-81
2022/01/18 05:03:59;;;;;;;;;;;;;;;;;;5017631;28;20466;-82
2022/01/18 05:06:25;;;;;;;;;;;;;;;;;;5018014;28;19965;-84
2022/01/18 05:08:51;;;;;;;;;;;;;;;;;;5020738;28;20528;-83
2022/01/18 05:11:20;;;;;;;;;;;;;;;;;;5028846;28;19956;-84
2022/01/18 05:19:17;;;;;;;;;;;;;;;;;;5034387;28;19960;-86
2022/01/18 05:24:18;;;;;;;;;;;;;;;;;;5028487;28;19953;-84
2022/01/18 05:26:44;;;;;;;;;;;;;;;;;;5021612;28;19996;-91
2022/01/18 05:29:10;;;;;;;;;;;;;;;;;;5022166;28;19920;-80
2022/01/18 05:31:37;;;;;;;;;;;;;;;;;;5022134;28;20015;-81
2022/01/18 05:34:03;;;;;;;;;;;;;;;;;;5025635;28;19964;-80
2022/01/18 05:36:29;;;;;;;;;;;;;;;;;;5022589;28;20394;-81
2022/01/18 05:38:55;;;;;;;;;;;;;;;;;;5022434;28;20436;-82
2022/01/18 05:41:21;;;;;;;;;;;;;;;;;;5022418;28;20007;-82
2022/01/18 05:43:48;;;;;;;;;;;;;;;;;;5024555;28;19948;-81
2022/01/18 05:46:14;;;;;;;;;;;;;;;;;;5052863;28;19989;-81
2022/01/18 05:48:40;;;;;;;;;;;;;;;;;;5026603;28;19963;-81
2022/01/18 05:51:06;;;;;;;;;;;;;;;;;;5021969;28;19960;-81
2022/01/18 05:53:34;;;;;;;;;;;;;;;;;;5022726;28;20458;-81
2022/01/18 05:56:01;;;;;;;;;;;;;;;;;;5023400;28;19961;-81
2022/01/18 05:58:27;;;;;;;;;;;;;;;;;;5019948;28;19965;-81
2022/01/18 06:00:55;;;;;;;;;;;;;;;;;;5020692;28;21595;-81
2022/01/18 06:03:32;;;;;;;;;;;;;;;;;;5024243;28;20006;-81
2022/01/18 06:08:43;;;;;;;;;;;;;;;;;;5023598;28;21490;-81
2022/01/18 06:11:09;;;;;;;;;;;;;;;;;;5018788;28;19965;-83
2022/01/18 06:13:35;;;;;;;;;;;;;;;;;;5019224;28;20050;-81
2022/01/18 06:16:02;;;;;;;;;;;;;;;;;;5018854;28;19956;-81
2022/01/18 06:18:28;;;;;;;;;;;;;;;;;;5021603;28;20534;-82
2022/01/18 06:20:54;;;;;;;;;;;;;;;;;;5026307;28;19952;-82
2022/01/18 06:23:20;;;;;;;;;;;;;;;;;;5019768;28;19948;-81
2022/01/18 06:25:46;;;;;;;;;;;;;;;;;;5024278;28;19972;-80
2022/01/18 06:28:12;;;;;;;;;;;;;;;;;;5024749;28;20018;-80
2022/01/18 06:30:39;;;;;;;;;;;;;;;;;;5028854;28;19944;-83
2022/01/18 06:33:05;;;;;;;;;;;;;;;;;;5020649;28;19940;-82
2022/01/18 06:35:31;;;;;;;;;;;;;;;;;;5039690;28;19917;-81
2022/01/18 06:37:57;;;;;;;;;;;;;;;;;;5024313;28;19961;-82
2022/01/18 06:40:25;;;;;;;;;;;;;;;;;;5052312;28;19983;-82
2022/01/18 06:42:51;;;;;;;;;;;;;;;;;;5018144;28;19951;-80
2022/01/18 06:45:17;;;;;;;;;;;;;;;;;;5023294;28;19975;-83
2022/01/18 06:47:44;;;;;;;;;;;;;;;;;;5023794;28;19949;-82
2022/01/18 06:50:13;;;;;;;;;;;;;;;;;;5023413;28;19964;-80
2022/01/18 06:52:39;;;;;;;;;;;;;;;;;;5023878;28;20340;-79
2022/01/18 06:55:05;;;;;;;;;;;;;;;;;;5017491;28;19956;-79
2022/01/18 06:57:31;;;;;;;;;;;;;;;;;;5024558;28;19924;-80
2022/01/18 06:59:57;;;;;;;;;;;;;;;;;;5021159;28;19960;-82
2022/01/18 07:02:24;;;;;;;;;;;;;;;;;;5021457;28;20136;-81
2022/01/18 07:04:50;;;;;;;;;;;;;;;;;;5017804;28;19971;-81
2022/01/18 07:07:16;;;;;;;;;;;;;;;;;;5016574;28;19984;-79
2022/01/18 07:09:44;;;;;;;;;;;;;;;;;;5017864;28;19949;-80
2022/01/18 07:12:11;;;;;;;;;;;;;;;;;;5017378;28;19953;-80
2022/01/18 07:14:37;;;;;;;;;;;;;;;;;;5020067;28;19959;-80
2022/01/18 07:17:03;;;;;;;;;;;;;;;;;;5020564;28;20422;-80
2022/01/18 07:19:32;;;;;;;;;;;;;;;;;;5016746;28;20334;-79
2022/01/18 07:21:58;;;;;;;;;;;;;;;;;;5038104;28;20376;-80
2022/01/18 07:24:43;;;;;;;;;;;;;;;;;;5021614;28;19960;-80
2022/01/18 07:27:09;;;;;;;;;;;;;;;;;;5020784;28;19975;-80
2022/01/18 07:29:35;;;;;;;;;;;;;;;;;;5019195;28;20653;-79
2022/01/18 07:32:02;;;;;;;;;;;;;;;;;;5019058;28;20444;-80
2022/01/18 07:34:30;;;;;;;;;;;;;;;;;;5027696;28;19963;-79
2022/01/18 07:36:56;;;;;;;;;;;;;;;;;;5028036;28;19991;-80
2022/01/18 07:39:22;;;;;;;;;;;;;;;;;;5022540;28;19957;-79
2022/01/18 07:41:49;;;;;;;;;;;;;;;;;;5023313;28;19960;-80
2022/01/18 07:44:15;;;;;;;;;;;;;;;;;;5022105;28;19964;-80
2022/01/18 07:46:41;;;;;;;;;;;;;;;;;;5058916;28;19971;-79
2022/01/18 07:49:07;;;;;;;;;;;;;;;;;;5021902;28;20023;-79
2022/01/18 07:51:33;;;;;;;;;;;;;;;;;;5029013;28;19949;-79
2022/01/18 07:54:00;;;;;;;;;;;;;;;;;;5027440;28;20382;-80
2022/01/18 07:56:26;;;;;;;;;;;;;;;;;;5022727;28;19975;-79
2022/01/18 07:58:52;;;;;;;;;;;;;;;;;;5056454;28;20446;-80
2022/01/18 08:01:18;;;;;;;;;;;;;;;;;;5022420;28;19959;-79
2022/01/18 08:03:44;;;;;;;;;;;;;;;;;;5024404;28;19917;-78
2022/01/18 08:06:10;;;;;;;;;;;;;;;;;;5023766;28;19960;-80
2022/01/18 08:08:39;;;;;;;;;;;;;;;;;;5054974;28;19957;-80
2022/01/18 08:11:05;;;;;;;;;;;;;;;;;;5024982;28;19949;-80
2022/01/18 08:13:38;;;;;;;;;;;;;;;;;;5024561;28;19960;-80
2022/01/18 08:18:49;;;;;;;;;;;;;;;;;;5016680;28;19960;-80
2022/01/18 08:21:15;;;;;;;;;;;;;;;;;;5029303;28;20688;-80
2022/01/18 08:23:41;;;;;;;;;;;;;;;;;;5052767;28;19948;-79
2022/01/18 08:26:07;;;;;;;;;;;;;;;;;;5057155;28;20391;-80
2022/01/18 08:28:33;;;;;;;;;;;;;;;;;;5028030;28;20545;-79
2022/01/18 08:31:00;;;;;;;;;;;;;;;;;;5024955;28;19964;-79
2022/01/18 08:33:26;;;;;;;;;;;;;;;;;;5026562;28;19961;-80
2022/01/18 08:35:52;;;;;;;;;;;;;;;;;;5024288;28;19972;-79
2022/01/18 08:38:18;;;;;;;;;;;;;;;;;;5023294;28;19917;-79
2022/01/18 08:40:45;;;;;;;;;;;;;;;;;;5021563;28;19963;-79
2022/01/18 08:43:11;;;;;;;;;;;;;;;;;;5051032;28;19964;-79
2022/01/18 08:45:37;;;;;;;;;;;;;;;;;;5059161;28;19929;-79
2022/01/18 08:48:03;;;;;;;;;;;;;;;;;;5026537;28;19952;-79
2022/01/18 08:50:31;;;;;;;;;;;;;;;;;;5028481;28;20401;-80
2022/01/18 08:52:57;;;;;;;;;;;;;;;;;;5036249;28;20005;-80
2022/01/18 08:55:23;;;;;;;;;;;;;;;;;;5023595;28;20642;-81
2022/01/18 08:57:49;;;;;;;;;;;;;;;;;;5024368;28;19972;-80
2022/01/18 09:00:16;;;;;;;;;;;;;;;;;;5019110;28;19937;-80
2022/01/18 09:02:42;;;;;;;;;;;;;;;;;;5002726;28;19986;-80
2022/01/18 09:05:08;;;;;;;;;;;;;;;;;;5007231;28;19956;-80
2022/01/18 09:07:37;;;;;;;;;;;;;;;;;;5003341;28;20393;-80
2022/01/18 09:10:06;;;;;;;;;;;;;;;;;;5002941;28;20403;-80
2022/01/18 09:12:32;;;;;;;;;;;;;;;;;;5008944;28;21391;-79
2022/01/18 09:15:01;;;;;;;;;;;;;;;;;;4994764;28;19968;-80
2022/01/18 09:17:30;;;;;;;;;;;;;;;;;;5003661;28;19972;-79
2022/01/18 09:19:56;;;;;;;;;;;;;;;;;;5004502;28;19952;-79
2022/01/18 09:22:23;;;;;;;;;;;;;;;;;;5013826;28;20026;-79
2022/01/18 09:24:49;;;;;;;;;;;;;;;;;;5020201;28;19917;-79
2022/01/18 09:27:15;;;;;;;;;;;;;;;;;;5015660;28;19936;-79
2022/01/18 09:29:42;;;;;;;;;;;;;;;;;;5018826;28;19925;-79
2022/01/18 09:32:08;;;;;;;;;;;;;;;;;;5022850;28;19972;-80
2022/01/18 09:34:34;;;;;;;;;;;;;;;;;;5015455;28;19921;-79
2022/01/18 09:37:00;;;;;;;;;;;;;;;;;;5018432;28;20376;-79
2022/01/18 09:39:27;;;;;;;;;;;;;;;;;;5019381;28;19957;-79
2022/01/18 09:41:54;;;;;;;;;;;;;;;;;;5022497;28;19971;-79
2022/01/18 09:44:20;;;;;;;;;;;;;;;;;;5047127;28;19976;-79
2022/01/18 09:46:46;;;;;;;;;;;;;;;;;;5023468;28;20085;-79
2022/01/18 09:49:12;;;;;;;;;;;;;;;;;;5012175;28;20010;-79
2022/01/18 09:51:39;;;;;;;;;;;;;;;;;;5019714;28;19925;-79
2022/01/18 09:54:05;;;;;;;;;;;;;;;;;;5017995;28;19921;-79
2022/01/18 09:56:31;;;;;;;;;;;;;;;;;;5022065;28;20385;-79
2022/01/18 09:58:57;;;;;;;;;;;;;;;;;;5036368;28;19951;-80
2022/01/18 10:01:25;;;;;;;;;;;;;;;;;;5028069;28;20004;-80
2022/01/18 10:03:51;;;;;;;;;;;;;;;;;;5019346;28;19952;-80
2022/01/18 10:06:17;;;;;;;;;;;;;;;;;;5015633;28;20455;-80
2022/01/18 10:08:44;;;;;;;;;;;;;;;;;;5020312;28;19967;-80
2022/01/18 10:11:13;;;;;;;;;;;;;;;;;;5024057;28;19965;-80
2022/01/18 10:13:41;;;;;;;;;;;;;;;;;;5019108;28;19961;-80
2022/01/18 10:16:07;;;;;;;;;;;;;;;;;;5051177;28;19952;-79
2022/01/18 10:18:38;;;;;;;;;;;;;;;;;;5020176;28;19975;-80
2022/01/18 10:21:06;;;;;;;;;;;;;;;;;;5022695;28;19948;-79
2022/01/18 10:23:32;;;;;;;;;;;;;;;;;;5014542;28;20010;-83
2022/01/18 10:25:59;;;;;;;;;;;;;;;;;;5019456;28;19971;-78
2022/01/18 10:28:25;;;;;;;;;;;;;;;;;;5003828;28;19972;-79
2022/01/18 10:30:51;;;;;;;;;;;;;;;;;;5027498;28;20335;-79
2022/01/18 10:33:21;;;;;;;;;;;;;;;;;;5012863;28;19949;-79
2022/01/18 10:35:48;;;;;;;;;;;;;;;;;;5004386;28;19949;-79
2022/01/18 10:38:14;;;;;;;;;;;;;;;;;;5018828;28;19961;-79
2022/01/18 10:40:40;;;;;;;;;;;;;;;;;;5028906;28;19925;-77
2022/01/18 10:43:07;;;;;;;;;;;;;;;;;;5024190;28;19957;-80
2022/01/18 10:45:35;;;;;;;;;;;;;;;;;;5022480;28;19971;-78
2022/01/18 10:48:02;;;;;;;;;;;;;;;;;;5027204;28;20402;-78
2022/01/18 10:50:28;;;;;;;;;;;;;;;;;;5020140;28;19953;-78
2022/01/18 10:52:55;;;;;;;;;;;;;;;;;;5028374;28;19948;-78
2022/01/18 10:55:21;;;;;;;;;;;;;;;;;;5020148;28;19964;-79
2022/01/18 10:57:47;;;;;;;;;;;;;;;;;;5023099;28;19960;-78
2022/01/18 11:00:13;;;;;;;;;;;;;;;;;;5024028;28;19960;-78
2022/01/18 11:02:40;;;;;;;;;;;;;;;;;;5018940;28;19925;-79
2022/01/18 11:05:06;;;;;;;;;;;;;;;;;;5019838;28;19968;-79
2022/01/18 11:07:32;;;;;;;;;;;;;;;;;;5024490;28;19969;-78
2022/01/18 11:09:58;;;;;;;;;;;;;;;;;;5021546;28;19956;-79
2022/01/18 11:12:28;;;;;;;;;;;;;;;;;;5022806;28;19953;-79
2022/01/18 11:15:04;;;;;;;;;;;;;;;;;;5019027;28;19948;-79
2022/01/18 11:17:39;;;;;;;;;;;;;;;;;;5015188;28;19964;-79
2022/01/18 11:20:05;;;;;;;;;;;;;;;;;;5022426;28;19953;-78
2022/01/18 11:22:33;;;;;;;;;;;;;;;;;;5024565;28;19960;-77
2022/01/18 11:25:00;;;;;;;;;;;;;;;;;;5035953;28;20030;-78
2022/01/18 11:27:28;;;;;;;;;;;;;;;;;;5026550;28;20023;-78
2022/01/18 11:29:54;;;;;;;;;;;;;;;;;;5029024;28;19961;-79
2022/01/18 11:32:21;;;;;;;;;;;;;;;;;;5025810;28;19957;-79
2022/01/18 11:34:49;;;;;;;;;;;;;;;;;;5024764;28;19961;-78
2022/01/18 11:37:17;;;;;;;;;;;;;;;;;;5021203;28;19964;-79
2022/01/18 11:39:43;;;;;;;;;;;;;;;;;;5025815;28;19967;-79
2022/01/18 11:42:09;;;;;;;;;;;;;;;;;;5023419;28;19945;-79
2022/01/18 11:44:35;;;;;;;;;;;;;;;;;;5020463;28;19967;-79
2022/01/18 11:47:01;;;;;;;;;;;;;;;;;;5021630;28;19952;-79
2022/01/18 11:49:29;;;;;;;;;;;;;;;;;;5026454;28;19952;-79
2022/01/18 11:51:58;;;;;;;;;;;;;;;;;;5030413;28;19964;-80
2022/01/18 11:57:03;;;;;;;;;;;;;;;;;;5022432;28;19991;-79
2022/01/18 11:59:29;;;;;;;;;;;;;;;;;;5021686;28;19927;-80
2022/01/18 12:01:55;;;;;;;;;;;;;;;;;;5018297;28;20200;-79
2022/01/18 12:04:22;;;;;;;;;;;;;;;;;;5025406;28;20010;-78
2022/01/18 12:06:48;;;;;;;;;;;;;;;;;;5024056;28;19965;-79
2022/01/18 12:09:14;;;;;;;;;;;;;;;;;;5023560;28;19953;-79
2022/01/18 12:11:40;;;;;;;;;;;;;;;;;;5054843;28;20425;-79
2022/01/18 12:14:06;;;;;;;;;;;;;;;;;;5024293;28;19953;-79
2022/01/18 12:16:33;;;;;;;;;;;;;;;;;;5026183;28;19973;-79
2022/01/18 12:18:59;;;;;;;;;;;;;;;;;;5026304;28;19952;-79
2022/01/18 12:21:26;;;;;;;;;;;;;;;;;;5028943;28;24393;-79
2022/01/18 12:23:53;;;;;;;;;;;;;;;;;;5021238;28;19968;-79
2022/01/18 12:26:30;;;;;;;;;;;;;;;;;;5030807;28;19964;-78
2022/01/18 12:31:34;;;;;;;;;;;;;;;;;;5025995;28;19949;-79
2022/01/18 12:34:00;;;;;;;;;;;;;;;;;;5018231;28;19961;-78
2022/01/18 12:36:27;;;;;;;;;;;;;;;;;;5001379;28;20389;-77
2022/01/18 12:38:54;;;;;;;;;;;;;;;;;;5021096;28;19991;-78
2022/01/18 12:41:20;;;;;;;;;;;;;;;;;;4997742;28;19965;-78
2022/01/18 12:46:31;;;;;;;;;;;;;;;;;;5002842;28;19969;-76
2022/01/18 12:48:57;;;;;;;;;;;;;;;;;;5008606;28;20480;-77
2022/01/18 12:51:23;;;;;;;;;;;;;;;;;;5003244;28;19941;-77
2022/01/18 12:53:50;;;;;;;;;;;;;;;;;;5004158;28;19953;-77
2022/01/18 12:56:16;;;;;;;;;;;;;;;;;;5011180;28;20475;-78
2022/01/18 12:58:42;;;;;;;;;;;;;;;;;;5018586;28;19949;-78
2022/01/18 13:01:08;;;;;;;;;;;;;;;;;;5020220;28;20392;-78
2022/01/18 13:03:34;;;;;;;;;;;;;;;;;;5021001;28;19982;-78
2022/01/18 13:06:01;;;;;;;;;;;;;;;;;;5021578;28;19971;-76
2022/01/18 13:08:29;;;;;;;;;;;;;;;;;;5022388;28;19975;-78
2022/01/18 13:10:55;;;;;;;;;;;;;;;;;;5017066;28;20401;-78
2022/01/18 13:13:22;;;;;;;;;;;;;;;;;;5020740;28;19964;-77
2022/01/18 13:26:46;;;;;;;;;;;;;;;;;;5027544;28;20023;-79
2022/01/18 13:29:13;;;;;;;;;;;;;;;;;;5021628;28;19953;-80
2022/01/18 13:31:41;;;;;;;;;;;;;;;;;;5023493;28;20038;-79
2022/01/18 13:34:20;;;;;;;;;;;;;;;;;;5024919;28;20014;-80
2022/01/18 13:36:46;;;;;;;;;;;;;;;;;;5036790;28;19941;-79
2022/01/18 13:39:12;;;;;;;;;;;;;;;;;;5023997;28;20372;-79
2022/01/18 13:41:38;;;;;;;;;;;;;;;;;;5022689;28;20010;-79
2022/01/18 13:44:05;;;;;;;;;;;;;;;;;;5022673;28;19918;-79
2022/01/18 13:46:31;;;;;;;;;;;;;;;;;;5022597;28;19948;-77
2022/01/18 13:48:57;;;;;;;;;;;;;;;;;;5020514;28;20038;-77
2022/01/18 13:51:23;;;;;;;;;;;;;;;;;;5020974;28;19968;-78
2022/01/18 13:53:49;;;;;;;;;;;;;;;;;;5026392;28;19961;-77
2022/01/18 13:56:17;;;;;;;;;;;;;;;;;;5021587;28;19964;-79
2022/01/18 13:58:43;;;;;;;;;;;;;;;;;;5026193;28;20333;-79
2022/01/18 14:01:10;;;;;;;;;;;;;;;;;;5021336;28;19952;-79
2022/01/18 14:03:36;;;;;;;;;;;;;;;;;;5016357;28;19949;-80
2022/01/18 14:06:02;;;;;;;;;;;;;;;;;;5022429;28;19964;-79
2022/01/18 14:08:28;;;;;;;;;;;;;;;;;;5018518;28;19963;-79
2022/01/18 14:10:57;;;;;;;;;;;;;;;;;;5020642;28;19940;-78
2022/01/18 14:13:24;;;;;;;;;;;;;;;;;;5017588;28;19956;-79
2022/01/18 14:15:50;;;;;;;;;;;;;;;;;;5017475;28;20392;-78
2022/01/18 14:18:16;;;;;;;;;;;;;;;;;;5016791;28;19944;-78
2022/01/18 14:20:43;;;;;;;;;;;;;;;;;;5050436;28;20383;-78
2022/01/18 14:23:09;;;;;;;;;;;;;;;;;;5014982;28;20424;-79
2022/01/18 14:25:35;;;;;;;;;;;;;;;;;;5017704;28;20402;-80
2022/01/18 14:28:01;;;;;;;;;;;;;;;;;;5019685;28;19952;-81
2022/01/18 14:30:29;;;;;;;;;;;;;;;;;;5018206;28;20380;-82
2022/01/18 14:32:56;;;;;;;;;;;;;;;;;;5015523;28;20021;-79
2022/01/18 14:35:23;;;;;;;;;;;;;;;;;;5019653;28;19971;-79
2022/01/18 14:37:49;;;;;;;;;;;;;;;;;;5018660;28;19983;-79
2022/01/18 14:40:15;;;;;;;;;;;;;;;;;;5020081;28;19953;-80
2022/01/18 14:42:55;;;;;;;;;;;;;;;;;;5020609;28;19983;-79
2022/01/18 14:47:51;;;;;;;;;;;;;;;;;;5014447;28;19967;-78
2022/01/18 14:50:17;;;;;;;;;;;;;;;;;;5015060;28;19992;-79
2022/01/18 14:52:45;;;;;;;;;;;;;;;;;;5045458;28;20293;-80
2022/01/18 14:55:12;;;;;;;;;;;;;;;;;;5023514;28;20406;-79
2022/01/18 14:57:38;;;;;;;;;;;;;;;;;;5023661;28;19956;-78
2022/01/18 15:00:04;;;;;;;;;;;;;;;;;;5028076;28;19964;-79
2022/01/18 15:02:30;;;;;;;;;;;;;;;;;;5053575;28;19917;-79
2022/01/18 15:04:56;;;;;;;;;;;;;;;;;;5036995;28;19925;-80
2022/01/18 15:07:23;;;;;;;;;;;;;;;;;;5034499;28;19969;-80
2022/01/18 15:09:49;;;;;;;;;;;;;;;;;;5035225;28;20505;-78
2022/01/18 15:12:15;;;;;;;;;;;;;;;;;;5032202;28;19924;-79
2022/01/18 15:14:41;;;;;;;;;;;;;;;;;;5021223;28;20268;-79
2022/01/18 15:17:07;;;;;;;;;;;;;;;;;;5023201;28;19956;-79
2022/01/18 15:19:36;;;;;;;;;;;;;;;;;;5025128;28;20391;-80
2022/01/18 15:22:03;;;;;;;;;;;;;;;;;;5024477;28;19972;-79
2022/01/18 15:24:29;;;;;;;;;;;;;;;;;;5022317;28;19948;-79
2022/01/18 15:26:59;;;;;;;;;;;;;;;;;;5021552;28;19968;-81
2022/01/18 15:29:25;;;;;;;;;;;;;;;;;;5032210;28;19956;-79
2022/01/18 15:31:52;;;;;;;;;;;;;;;;;;5028548;28;19949;-80
2022/01/18 15:34:18;;;;;;;;;;;;;;;;;;5023323;28;19975;-79
2022/01/18 15:36:44;;;;;;;;;;;;;;;;;;5018789;28;20404;-82
2022/01/18 15:39:10;;;;;;;;;;;;;;;;;;5007395;28;20015;-79
2022/01/18 15:41:37;;;;;;;;;;;;;;;;;;5017252;28;19959;-82
2022/01/18 15:44:03;;;;;;;;;;;;;;;;;;5015759;28;19964;-80
2022/01/18 15:46:29;;;;;;;;;;;;;;;;;;5019522;28;19953;-78
2022/01/18 15:48:55;;;;;;;;;;;;;;;;;;5019747;28;20084;-78
2022/01/18 15:51:21;;;;;;;;;;;;;;;;;;5022338;28;19957;-81
2022/01/18 15:53:48;;;;;;;;;;;;;;;;;;5016854;28;19957;-80
2022/01/18 15:56:14;;;;;;;;;;;;;;;;;;5019416;28;19985;-81
2022/01/18 15:58:40;;;;;;;;;;;;;;;;;;5018513;28;20333;-80
2022/01/18 16:01:06;;;;;;;;;;;;;;;;;;5017187;28;19967;-79
2022/01/18 16:03:32;;;;;;;;;;;;;;;;;;5004161;28;20694;-79
2022/01/18 16:05:59;;;;;;;;;;;;;;;;;;4990347;28;19957;-80
2022/01/18 16:08:25;;;;;;;;;;;;;;;;;;5019488;28;20046;-80
2022/01/18 16:10:53;;;;;;;;;;;;;;;;;;5021445;28;19975;-80
2022/01/18 16:13:19;;;;;;;;;;;;;;;;;;5024531;28;19945;-80
2022/01/18 16:15:45;;;;;;;;;;;;;;;;;;5021568;28;19953;-79
2022/01/18 16:18:11;;;;;;;;;;;;;;;;;;5017538;28;19957;-79
2022/01/18 16:20:38;;;;;;;;;;;;;;;;;;5016044;28;19952;-78
2022/01/18 16:23:04;;;;;;;;;;;;;;;;;;5014945;28;20546;-78
2022/01/18 16:25:30;;;;;;;;;;;;;;;;;;5015950;28;19955;-78
2022/01/18 16:27:56;;;;;;;;;;;;;;;;;;5017454;28;20582;-78
2022/01/18 16:30:22;;;;;;;;;;;;;;;;;;5017102;28;20593;-78
2022/01/18 16:32:49;;;;;;;;;;;;;;;;;;5021296;28;19963;-79
2022/01/18 16:35:15;;;;;;;;;;;;;;;;;;5017094;28;19952;-79
2022/01/18 16:37:41;;;;;;;;;;;;;;;;;;5038493;28;19948;-79
2022/01/18 16:40:10;;;;;;;;;;;;;;;;;;5024700;28;19945;-79
2022/01/18 16:42:36;;;;;;;;;;;;;;;;;;5019723;28;19949;-78
2022/01/18 16:45:02;;;;;;;;;;;;;;;;;;5024465;28;19955;-78
2022/01/18 16:47:28;;;;;;;;;;;;;;;;;;5022346;28;20021;-79
2022/01/18 16:49:54;;;;;;;;;;;;;;;;;;5023787;28;19949;-78
2022/01/18 16:52:21;;;;;;;;;;;;;;;;;;5015489;28;19957;-78
2022/01/18 16:54:47;;;;;;;;;;;;;;;;;;5034823;28;19968;-78
2022/01/18 16:57:13;;;;;;;;;;;;;;;;;;5025276;28;20152;-79
2022/01/18 16:59:39;;;;;;;;;;;;;;;;;;5021693;28;19988;-79
2022/01/18 17:02:05;;;;;;;;;;;;;;;;;;5036194;28;20432;-79
2022/01/18 17:04:33;;;;;;;;;;;;;;;;;;5020132;28;19964;-79
2022/01/18 17:07:01;;;;;;;;;;;;;;;;;;5023085;28;20361;-79
2022/01/18 17:09:27;;;;;;;;;;;;;;;;;;5020985;28;21494;-79
2022/01/18 17:11:53;;;;;;;;;;;;;;;;;;5057397;28;19924;-78
2022/01/18 17:14:19;;;;;;;;;;;;;;;;;;5022638;28;19957;-78
2022/01/18 17:16:47;;;;;;;;;;;;;;;;;;5023654;28;19951;-79
2022/01/18 17:19:13;;;;;;;;;;;;;;;;;;5021710;28;20038;-80
2022/01/18 17:21:40;;;;;;;;;;;;;;;;;;5014328;28;19964;-80
2022/01/18 17:24:07;;;;;;;;;;;;;;;;;;5015080;28;19926;-80
2022/01/18 17:26:33;;;;;;;;;;;;;;;;;;5003685;28;19961;-83
2022/01/18 17:28:59;;;;;;;;;;;;;;;;;;4998357;28;20578;-84
2022/01/18 17:31:26;;;;;;;;;;;;;;;;;;5019741;28;19960;-83
2022/01/18 17:33:52;;;;;;;;;;;;;;;;;;5017164;28;20367;-83
2022/01/18 17:36:18;;;;;;;;;;;;;;;;;;5011663;28;19961;-82
2022/01/18 17:38:45;;;;;;;;;;;;;;;;;;5018801;28;19948;-82
2022/01/18 17:41:12;;;;;;;;;;;;;;;;;;5027172;28;20448;-82
2022/01/18 17:43:38;;;;;;;;;;;;;;;;;;5018605;28;19971;-83
2022/01/18 17:46:04;;;;;;;;;;;;;;;;;;5018615;28;19967;-83
2022/01/18 17:48:30;;;;;;;;;;;;;;;;;;5019226;28;19921;-83
2022/01/18 17:50:58;;;;;;;;;;;;;;;;;;5034761;28;20002;-82
2022/01/18 17:53:25;;;;;;;;;;;;;;;;;;5022042;28;19921;-83
2022/01/18 17:55:52;;;;;;;;;;;;;;;;;;5023757;28;19953;-82
2022/01/18 17:58:18;;;;;;;;;;;;;;;;;;5018816;28;19944;-83
2022/01/18 18:00:45;;;;;;;;;;;;;;;;;;5020087;28;19925;-82
2022/01/18 18:03:11;;;;;;;;;;;;;;;;;;5024290;28;19949;-83
2022/01/18 18:05:37;;;;;;;;;;;;;;;;;;5013723;28;20349;-82
2022/01/18 18:08:04;;;;;;;;;;;;;;;;;;5019724;28;20002;-82
2022/01/18 18:10:30;;;;;;;;;;;;;;;;;;5023420;28;20392;-82
2022/01/18 18:12:56;;;;;;;;;;;;;;;;;;5016057;28;19949;-85
2022/01/18 18:15:23;;;;;;;;;;;;;;;;;;5013554;28;19957;-82
2022/01/18 18:17:49;;;;;;;;;;;;;;;;;;5017400;28;20274;-81
2022/01/18 18:20:15;;;;;;;;;;;;;;;;;;5020021;28;20617;-82
2022/01/18 18:22:42;;;;;;;;;;;;;;;;;;5019577;28;19921;-82